Time;durP1;ratioP1;P1;durP2;ratioP2;P2;SDS_P1;SDS_P2;PMS_P1;PMS_P2;Temp;Humidity;BMP_temperature;BMP_pressure;BME280_temperature;BME280_humidity;BME280_pressure;Samples;Min_cycle;Max_cycle;Signal;HPM_P1;HPM_P2
2023/06/08 00:01:28;;;;;;;9.82;4.65;;;12.40;99.90;;;;;;5137303;27;20137;-73
2023/06/08 00:03:54;;;;;;;9.07;4.80;;;12.40;99.90;;;;;;5119769;27;20542;-74
2023/06/08 00:06:22;;;;;;;6.65;4.15;;;12.40;99.90;;;;;;5135978;27;20095;-73
2023/06/08 00:08:49;;;;;;;10.60;4.80;;;12.40;99.90;;;;;;5116434;27;20049;-74
2023/06/08 00:11:15;;;;;;;8.98;5.25;;;12.40;99.90;;;;;;5113953;27;20035;-74
2023/06/08 00:13:40;;;;;;;8.52;5.10;;;12.40;99.90;;;;;;5131414;27;20438;-74
2023/06/08 00:16:06;;;;;;;8.65;5.03;;;12.40;99.90;;;;;;5137038;27;20038;-73
2023/06/08 00:18:32;;;;;;;8.18;5.18;;;12.40;99.90;;;;;;5121824;27;20070;-73
2023/06/08 00:20:59;;;;;;;7.00;4.68;;;12.40;99.90;;;;;;5134746;27;20038;-73
2023/06/08 00:23:25;;;;;;;7.93;4.82;;;12.30;99.90;;;;;;5124285;27;20098;-73
2023/06/08 00:25:51;;;;;;;9.70;5.10;;;12.30;99.90;;;;;;5136882;27;20166;-74
2023/06/08 00:28:18;;;;;;;9.95;5.15;;;12.30;99.90;;;;;;5117623;27;20720;-74
2023/06/08 00:30:43;;;;;;;9.30;4.90;;;12.20;99.90;;;;;;5136846;27;20065;-74
2023/06/08 00:33:09;;;;;;;11.48;4.68;;;12.20;99.90;;;;;;5118683;27;20055;-73
2023/06/08 00:35:36;;;;;;;7.47;5.45;;;12.20;99.90;;;;;;5154527;27;20054;-73
2023/06/08 00:38:02;;;;;;;8.20;5.03;;;12.20;99.90;;;;;;5119007;27;20042;-73
2023/06/08 00:40:27;;;;;;;8.10;5.20;;;12.20;99.90;;;;;;5153540;27;20046;-73
2023/06/08 00:42:53;;;;;;;10.00;4.88;;;12.20;99.90;;;;;;5136390;27;20050;-74
2023/06/08 00:45:18;;;;;;;9.30;5.05;;;12.20;99.90;;;;;;5118487;27;20189;-74
2023/06/08 00:47:45;;;;;;;9.52;4.70;;;12.20;99.90;;;;;;5136104;27;20394;-73
2023/06/08 00:50:12;;;;;;;7.70;4.78;;;12.20;99.90;;;;;;5130792;27;20046;-74
2023/06/08 00:52:39;;;;;;;8.38;4.85;;;12.20;99.90;;;;;;5118214;27;20388;-73
2023/06/08 00:55:06;;;;;;;7.35;4.75;;;12.20;99.90;;;;;;5139020;27;20043;-74
2023/06/08 00:57:34;;;;;;;7.78;4.88;;;12.30;99.90;;;;;;5157070;27;20098;-74
2023/06/08 01:00:07;;;;;;;9.23;4.93;;;12.30;99.90;;;;;;5135971;27;20053;-74
2023/06/08 01:02:34;;;;;;;9.98;4.60;;;12.40;99.90;;;;;;5130860;27;20046;-74
2023/06/08 01:05:02;;;;;;;6.88;4.88;;;12.40;99.90;;;;;;5127108;27;20074;-74
2023/06/08 01:08:00;;;;;;;10.48;5.32;;;12.40;99.90;;;;;;5136269;27;20055;-74
2023/06/08 01:10:58;;;;;;;9.88;5.10;;;12.40;99.90;;;;;;5135376;27;20046;-74
2023/06/08 01:13:51;;;;;;;10.07;5.75;;;12.30;99.90;;;;;;5146252;27;20051;-74
2023/06/08 01:16:18;;;;;;;7.68;4.70;;;12.30;99.90;;;;;;5130999;27;20046;-74
2023/06/08 01:18:44;;;;;;;10.57;4.70;;;12.30;99.90;;;;;;5130043;27;20115;-74
2023/06/08 01:21:33;;;;;;;7.85;5.30;;;12.30;99.90;;;;;;5120831;27;20047;-74
2023/06/08 01:24:12;;;;;;;8.57;4.45;;;12.30;99.90;;;;;;5118831;27;20047;-73
2023/06/08 01:26:43;;;;;;;10.13;5.28;;;12.30;99.90;;;;;;5135708;27;20039;-74
2023/06/08 01:29:11;;;;;;;7.95;4.22;;;12.30;99.90;;;;;;5135867;27;20114;-74
2023/06/08 01:31:37;;;;;;;9.00;4.63;;;12.30;99.90;;;;;;5118032;27;20046;-73
2023/06/08 01:34:05;;;;;;;9.23;4.63;;;12.20;99.90;;;;;;5127918;27;20068;-73
2023/06/08 01:36:49;;;;;;;7.13;4.30;;;12.20;99.90;;;;;;5114444;28;20387;-73
2023/06/08 01:39:43;;;;;;;7.97;4.22;;;12.10;99.90;;;;;;5126206;27;20043;-74
2023/06/08 01:42:11;;;;;;;5.70;3.95;;;12.20;99.90;;;;;;5115138;28;20078;-74
2023/06/08 01:44:44;;;;;;;7.03;4.25;;;12.20;99.90;;;;;;5129268;27;20398;-74
2023/06/08 01:47:14;;;;;;;7.15;4.07;;;12.20;99.90;;;;;;5108760;28;20122;-74
2023/06/08 01:49:41;;;;;;;7.30;4.07;;;12.10;99.90;;;;;;5118404;27;20047;-74
2023/06/08 01:52:07;;;;;;;8.40;3.97;;;12.20;99.90;;;;;;5136103;27;20038;-74
2023/06/08 01:54:33;;;;;;;6.55;3.78;;;12.10;99.90;;;;;;5135727;27;20052;-73
2023/06/08 01:56:59;;;;;;;5.97;4.00;;;12.10;99.90;;;;;;5135645;27;20378;-74
2023/06/08 01:59:25;;;;;;;7.97;4.72;;;12.10;99.90;;;;;;5135543;27;20043;-74
2023/06/08 02:01:50;;;;;;;8.05;4.40;;;12.10;99.90;;;;;;5148463;27;20035;-73
2023/06/08 02:04:16;;;;;;;5.97;4.03;;;12.10;99.90;;;;;;5135936;27;20042;-74
2023/06/08 02:06:41;;;;;;;10.65;4.40;;;12.10;99.90;;;;;;5135784;27;20046;-74
2023/06/08 02:09:07;;;;;;;9.77;4.60;;;12.10;99.90;;;;;;5129984;28;20042;-74
2023/06/08 02:11:33;;;;;;;7.80;4.15;;;12.10;99.90;;;;;;5124212;27;20103;-74
2023/06/08 02:13:59;;;;;;;8.02;4.32;;;12.10;99.90;;;;;;5109996;28;20035;-74
2023/06/08 02:16:24;;;;;;;6.75;4.13;;;12.00;99.90;;;;;;5133502;27;20055;-73
2023/06/08 02:18:51;;;;;;;8.90;4.30;;;12.00;99.90;;;;;;5153449;27;20057;-74
2023/06/08 02:21:17;;;;;;;9.07;4.90;;;12.00;99.90;;;;;;5115044;28;20050;-74
2023/06/08 02:23:42;;;;;;;8.82;4.35;;;12.00;99.90;;;;;;5127363;27;20042;-74
2023/06/08 02:26:08;;;;;;;9.60;4.28;;;11.90;99.90;;;;;;5135637;27;20038;-74
2023/06/08 02:28:34;;;;;;;8.00;5.07;;;11.90;99.90;;;;;;5136162;27;20058;-73
2023/06/08 02:31:00;;;;;;;7.47;4.82;;;11.90;99.90;;;;;;5134367;27;20046;-74
2023/06/08 02:33:27;;;;;;;9.82;4.90;;;11.90;99.90;;;;;;5134723;27;20394;-74
2023/06/08 02:35:53;;;;;;;11.30;5.68;;;11.90;99.90;;;;;;5157219;27;20047;-74
2023/06/08 02:38:19;;;;;;;9.95;4.78;;;11.90;99.90;;;;;;5138903;27;20095;-74
2023/06/08 02:40:45;;;;;;;8.98;4.68;;;11.90;99.90;;;;;;5119445;27;20150;-74
2023/06/08 02:43:11;;;;;;;7.82;5.10;;;11.90;99.90;;;;;;5121703;27;20039;-74
2023/06/08 02:45:39;;;;;;;7.93;4.35;;;11.90;99.90;;;;;;5138682;27;20054;-74
2023/06/08 02:48:05;;;;;;;9.32;4.85;;;12.00;99.90;;;;;;5137888;27;20047;-74
2023/06/08 02:50:31;;;;;;;10.13;5.05;;;12.00;99.90;;;;;;5127720;27;20045;-74
2023/06/08 02:52:56;;;;;;;9.85;4.82;;;12.00;99.90;;;;;;5138788;27;20047;-74
2023/06/08 02:55:22;;;;;;;9.68;4.85;;;12.00;99.90;;;;;;5149332;27;20047;-73
2023/06/08 02:57:52;;;;;;;9.57;5.18;;;12.00;99.90;;;;;;5103056;27;20523;-73
2023/06/08 03:00:20;;;;;;;10.18;5.07;;;12.00;99.90;;;;;;5117949;27;20039;-74
2023/06/08 03:02:45;;;;;;;7.18;4.53;;;12.00;99.90;;;;;;5138842;27;20108;-74
2023/06/08 03:05:13;;;;;;;11.63;5.25;;;12.00;99.90;;;;;;5119463;27;20440;-74
2023/06/08 03:07:42;;;;;;;10.00;5.03;;;12.00;99.90;;;;;;5138280;27;20043;-75
2023/06/08 03:10:08;;;;;;;9.80;4.60;;;12.00;99.90;;;;;;5138041;27;20039;-74
2023/06/08 03:12:34;;;;;;;10.70;5.57;;;11.90;99.90;;;;;;5137970;27;20047;-74
2023/06/08 03:15:00;;;;;;;8.77;5.18;;;11.90;99.90;;;;;;5121197;27;20042;-74
2023/06/08 03:17:26;;;;;;;7.70;5.07;;;11.90;99.90;;;;;;5118630;27;20047;-74
2023/06/08 03:19:53;;;;;;;8.27;5.30;;;11.80;99.90;;;;;;5100191;27;20149;-74
2023/06/08 03:22:19;;;;;;;7.53;5.05;;;11.80;99.90;;;;;;5107654;27;20041;-74
2023/06/08 03:24:48;;;;;;;7.53;4.70;;;11.80;99.90;;;;;;5137608;27;20475;-74
2023/06/08 03:27:14;;;;;;;10.32;4.65;;;11.80;99.90;;;;;;5120776;27;20051;-73
2023/06/08 03:29:40;;;;;;;8.60;4.75;;;11.80;99.90;;;;;;5133224;27;20095;-74
2023/06/08 03:32:07;;;;;;;7.20;4.38;;;11.70;99.90;;;;;;5145702;27;20051;-74
2023/06/08 03:34:32;;;;;;;7.30;4.43;;;11.70;99.90;;;;;;5112960;27;20054;-74
2023/06/08 03:36:58;;;;;;;10.60;4.68;;;11.70;99.90;;;;;;5094698;27;20042;-74
2023/06/08 03:39:24;;;;;;;7.65;4.40;;;11.70;99.90;;;;;;5129371;27;20092;-74
2023/06/08 03:41:50;;;;;;;7.07;4.18;;;11.70;99.90;;;;;;5110505;27;20514;-74
2023/06/08 03:44:15;;;;;;;5.03;3.78;;;11.60;99.90;;;;;;5137731;27;20102;-73
2023/06/08 03:46:42;;;;;;;5.80;4.07;;;11.70;99.90;;;;;;5133488;27;20694;-74
2023/06/08 03:49:07;;;;;;;9.02;4.32;;;11.70;99.90;;;;;;5155879;27;20038;-73
2023/06/08 03:51:33;;;;;;;10.60;4.22;;;11.70;99.90;;;;;;5151851;27;20510;-74
2023/06/08 03:53:59;;;;;;;10.18;5.07;;;11.70;99.90;;;;;;5147590;27;20038;-73
2023/06/08 03:56:25;;;;;;;9.10;5.38;;;11.70;99.90;;;;;;5137360;27;20035;-73
2023/06/08 03:58:51;;;;;;;9.35;4.05;;;11.70;99.90;;;;;;5119752;27;20043;-74
2023/06/08 04:01:17;;;;;;;8.30;4.40;;;11.70;99.90;;;;;;5136867;27;20091;-73
2023/06/08 04:03:43;;;;;;;7.63;4.35;;;11.80;99.90;;;;;;5099320;27;20047;-74
2023/06/08 04:06:09;;;;;;;7.45;4.18;;;11.80;99.90;;;;;;5132375;27;20049;-74
2023/06/08 04:08:40;;;;;;;9.15;4.13;;;11.80;99.90;;;;;;5137151;27;20039;-73
2023/06/08 04:11:07;;;;;;;8.50;4.55;;;11.80;99.90;;;;;;5098708;27;20092;-73
2023/06/08 04:13:34;;;;;;;7.28;4.40;;;11.70;99.90;;;;;;5118714;27;20428;-73
2023/06/08 04:16:01;;;;;;;8.13;4.18;;;11.80;99.90;;;;;;5137332;27;20043;-74
2023/06/08 04:18:27;;;;;;;8.18;4.68;;;11.80;99.90;;;;;;5120047;27;20046;-74
2023/06/08 04:20:52;;;;;;;9.38;4.88;;;11.70;99.90;;;;;;5119299;27;20636;-74
2023/06/08 04:23:18;;;;;;;7.22;4.88;;;11.80;99.90;;;;;;5119921;27;20049;-74
2023/06/08 04:25:44;;;;;;;8.90;4.72;;;11.80;99.90;;;;;;5119749;27;20088;-74
2023/06/08 04:28:09;;;;;;;8.70;5.30;;;11.80;99.90;;;;;;5124312;27;20122;-74
2023/06/08 04:30:35;;;;;;;9.90;5.03;;;11.80;99.90;;;;;;5116376;27;20453;-74
2023/06/08 04:33:01;;;;;;;10.30;4.95;;;11.90;99.90;;;;;;5111005;27;20055;-74
2023/06/08 04:35:27;;;;;;;9.65;5.70;;;11.90;99.90;;;;;;5132784;27;20395;-74
2023/06/08 04:37:53;;;;;;;10.73;6.25;;;12.00;99.90;;;;;;5116035;27;20039;-75
2023/06/08 04:40:19;;;;;;;10.90;5.65;;;12.00;99.90;;;;;;5115285;27;20448;-74
2023/06/08 04:42:46;;;;;;;10.30;5.97;;;12.00;99.90;;;;;;5116016;27;20043;-73
2023/06/08 04:45:12;;;;;;;11.40;5.90;;;12.10;99.90;;;;;;5134205;27;20099;-73
2023/06/08 04:47:40;;;;;;;11.10;6.05;;;12.10;99.90;;;;;;5133072;27;20101;-73
2023/06/08 04:50:08;;;;;;;7.88;5.53;;;12.10;99.90;;;;;;5099331;27;20042;-74
2023/06/08 04:52:40;;;;;;;11.02;6.55;;;12.10;99.90;;;;;;5132764;27;20043;-74
2023/06/08 04:55:06;;;;;;;13.90;7.30;;;12.10;99.90;;;;;;5132780;27;20118;-73
2023/06/08 04:57:32;;;;;;;14.70;6.18;;;12.20;99.90;;;;;;5117317;27;20040;-74
2023/06/08 04:59:59;;;;;;;13.93;6.45;;;12.20;99.90;;;;;;5114947;27;20047;-74
2023/06/08 05:02:25;;;;;;;13.57;6.75;;;12.20;99.90;;;;;;5115481;27;20555;-74
2023/06/08 05:04:51;;;;;;;12.60;7.20;;;12.20;99.90;;;;;;5132500;27;20484;-74
2023/06/08 05:07:17;;;;;;;9.60;6.35;;;12.20;99.90;;;;;;5109895;28;20040;-74
2023/06/08 05:09:42;;;;;;;11.68;7.32;;;12.30;99.90;;;;;;5113494;27;20518;-73
2023/06/08 05:12:09;;;;;;;10.60;6.85;;;12.30;99.90;;;;;;5097867;27;20150;-74
2023/06/08 05:14:34;;;;;;;12.73;7.50;;;12.40;99.90;;;;;;5129396;27;20057;-73
2023/06/08 05:17:00;;;;;;;14.50;7.20;;;12.50;99.90;;;;;;5132970;27;20523;-74
2023/06/08 05:19:26;;;;;;;12.15;6.97;;;12.50;99.90;;;;;;5097990;28;20058;-74
2023/06/08 05:21:51;;;;;;;12.35;7.07;;;12.50;99.90;;;;;;5132426;27;20109;-75
2023/06/08 05:24:18;;;;;;;14.90;7.85;;;12.50;99.90;;;;;;5117634;28;20075;-73
2023/06/08 05:26:44;;;;;;;12.40;7.05;;;12.40;99.90;;;;;;5113805;28;20043;-74
2023/06/08 05:29:10;;;;;;;12.30;6.63;;;12.40;99.90;;;;;;5132129;28;20047;-74
2023/06/08 05:31:38;;;;;;;13.95;7.47;;;12.50;99.90;;;;;;5126484;28;20044;-73
2023/06/08 05:34:05;;;;;;;11.68;7.28;;;12.60;99.90;;;;;;5127955;27;20058;-73
2023/06/08 05:36:31;;;;;;;11.02;6.50;;;12.80;99.90;;;;;;5136166;27;20054;-74
2023/06/08 05:38:56;;;;;;;12.27;6.28;;;12.90;99.90;;;;;;5134963;27;20047;-74
2023/06/08 05:41:22;;;;;;;11.75;6.13;;;13.10;99.90;;;;;;5135724;27;20175;-73
2023/06/08 05:43:48;;;;;;;10.38;5.97;;;13.20;99.90;;;;;;5136154;27;20043;-74
2023/06/08 05:46:15;;;;;;;11.18;5.53;;;13.40;99.90;;;;;;5097941;28;20046;-74
2023/06/08 05:48:41;;;;;;;8.77;5.50;;;13.50;99.90;;;;;;5100268;28;20047;-73
2023/06/08 05:51:06;;;;;;;10.30;5.18;;;13.60;99.90;;;;;;5118332;27;20156;-73
2023/06/08 05:53:32;;;;;;;10.90;4.70;;;13.70;99.90;;;;;;5118700;27;20127;-74
2023/06/08 05:55:58;;;;;;;10.73;5.30;;;13.60;99.90;;;;;;5121181;27;20049;-74
2023/06/08 05:58:24;;;;;;;7.85;4.95;;;13.60;99.90;;;;;;5136418;27;20126;-75
2023/06/08 06:00:52;;;;;;;7.22;4.00;;;13.60;99.90;;;;;;5102013;27;20039;-75
2023/06/08 06:03:19;;;;;;;6.72;4.10;;;13.60;99.90;;;;;;5136356;27;20055;-74
2023/06/08 06:05:45;;;;;;;8.40;4.00;;;13.70;99.90;;;;;;5134110;27;20046;-73
2023/06/08 06:08:11;;;;;;;10.80;4.25;;;13.70;99.90;;;;;;5157672;27;20069;-74
2023/06/08 06:10:36;;;;;;;8.85;4.85;;;13.80;99.90;;;;;;5138672;27;20101;-74
2023/06/08 06:13:02;;;;;;;7.88;4.35;;;13.90;99.90;;;;;;5139505;27;20042;-74
2023/06/08 06:15:28;;;;;;;7.05;4.10;;;14.00;99.90;;;;;;5138702;27;20046;-64
2023/06/08 06:17:54;;;;;;;8.18;3.83;;;14.00;99.90;;;;;;5157921;27;20155;-66
2023/06/08 06:20:20;;;;;;;6.05;3.75;;;14.10;99.90;;;;;;5157221;27;20496;-64
2023/06/08 06:22:45;;;;;;;8.90;4.38;;;14.20;99.90;;;;;;5139308;27;20035;-65
2023/06/08 06:25:11;;;;;;;6.68;4.18;;;14.20;99.90;;;;;;5155682;27;20049;-65
2023/06/08 06:27:37;;;;;;;7.85;3.92;;;14.20;99.90;;;;;;5145967;27;20398;-65
2023/06/08 06:30:03;;;;;;;9.25;4.10;;;14.20;99.90;;;;;;5157208;27;20042;-65
2023/06/08 06:32:29;;;;;;;7.40;4.15;;;14.30;99.90;;;;;;5151571;27;20058;-64
2023/06/08 06:34:54;;;;;;;10.73;4.68;;;14.40;99.90;;;;;;5157208;27;20487;-64
2023/06/08 06:37:20;;;;;;;7.68;4.53;;;14.50;99.90;;;;;;5150135;27;20044;-64
2023/06/08 06:39:46;;;;;;;8.02;4.40;;;14.60;99.90;;;;;;5157106;27;20053;-64
2023/06/08 06:42:12;;;;;;;6.95;4.03;;;14.70;99.90;;;;;;5157261;27;20083;-65
2023/06/08 06:44:38;;;;;;;8.75;3.95;;;14.80;99.90;;;;;;5157239;27;20047;-64
2023/06/08 06:47:04;;;;;;;6.80;4.10;;;14.90;99.90;;;;;;5157269;27;20390;-65
2023/06/08 06:49:30;;;;;;;7.82;4.35;;;15.10;99.90;;;;;;5156961;27;20053;-65
2023/06/08 06:51:56;;;;;;;7.20;4.35;;;15.20;99.90;;;;;;5157057;27;20122;-64
2023/06/08 06:54:21;;;;;;;5.95;3.85;;;15.30;99.90;;;;;;5138346;27;20038;-64
2023/06/08 06:56:47;;;;;;;8.00;3.92;;;15.40;99.90;;;;;;5157086;27;20039;-64
2023/06/08 06:59:14;;;;;;;6.82;4.07;;;15.30;99.90;;;;;;5157170;27;20051;-65
2023/06/08 07:01:41;;;;;;;9.45;5.28;;;15.30;99.90;;;;;;5156517;27;20437;-65
2023/06/08 07:04:06;;;;;;;7.95;4.20;;;15.10;99.90;;;;;;5156880;27;20049;-65
2023/06/08 07:06:32;;;;;;;7.38;4.50;;;15.00;99.90;;;;;;5153988;27;20047;-64
2023/06/08 07:08:58;;;;;;;10.05;5.00;;;15.00;99.90;;;;;;5156123;27;20034;-65
2023/06/08 07:11:24;;;;;;;7.80;3.83;;;15.00;99.90;;;;;;5156087;27;20046;-64
2023/06/08 07:13:50;;;;;;;8.48;4.32;;;15.10;99.90;;;;;;5142310;27;20114;-65
2023/06/08 07:16:16;;;;;;;6.88;4.50;;;15.40;99.90;;;;;;5149181;27;20079;-66
2023/06/08 07:18:41;;;;;;;10.10;4.80;;;15.40;99.90;;;;;;5146110;27;20043;-64
2023/06/08 07:21:07;;;;;;;11.45;4.63;;;15.40;99.90;;;;;;5140442;27;20039;-64
2023/06/08 07:23:33;;;;;;;11.10;4.68;;;15.50;99.90;;;;;;5151912;27;20051;-65
2023/06/08 07:25:58;;;;;;;10.27;4.75;;;15.80;99.90;;;;;;5151705;27;20114;-65
2023/06/08 07:28:25;;;;;;;10.25;5.70;;;16.10;99.90;;;;;;5135470;27;20054;-66
2023/06/08 07:30:50;;;;;;;7.72;4.60;;;16.30;99.90;;;;;;5120089;27;20058;-66
2023/06/08 07:33:17;;;;;;;9.27;4.60;;;16.50;99.90;;;;;;5155799;27;20137;-66
2023/06/08 07:35:43;;;;;;;8.68;4.95;;;16.70;99.90;;;;;;5140313;27;20071;-65
2023/06/08 07:38:08;;;;;;;9.93;4.80;;;16.70;99.90;;;;;;5151481;27;20034;-66
2023/06/08 07:40:34;;;;;;;9.65;4.95;;;16.70;99.90;;;;;;5145148;27;20104;-66
2023/06/08 07:43:00;;;;;;;8.15;5.15;;;16.70;99.90;;;;;;5116229;27;20055;-66
2023/06/08 07:45:27;;;;;;;6.72;4.40;;;16.80;99.90;;;;;;5150810;27;20071;-65
2023/06/08 07:47:53;;;;;;;8.13;4.72;;;17.00;99.90;;;;;;5155928;27;20074;-67
2023/06/08 07:50:20;;;;;;;10.23;4.88;;;17.20;99.90;;;;;;5136829;27;20046;-66
2023/06/08 07:52:45;;;;;;;8.48;4.60;;;17.40;99.90;;;;;;5131679;27;20047;-66
2023/06/08 07:55:11;;;;;;;7.97;4.03;;;17.70;99.90;;;;;;5117085;27;20043;-66
2023/06/08 07:57:37;;;;;;;7.70;4.38;;;17.90;99.90;;;;;;5116435;27;20081;-66
2023/06/08 08:00:05;;;;;;;7.65;4.40;;;18.10;99.90;;;;;;5134711;27;20043;-65
2023/06/08 08:02:31;;;;;;;7.60;3.83;;;18.20;99.90;;;;;;5134733;27;20118;-65
2023/06/08 08:04:56;;;;;;;6.53;3.70;;;18.40;99.90;;;;;;5134764;27;20130;-65
2023/06/08 08:07:22;;;;;;;6.13;3.45;;;18.50;99.90;;;;;;5124053;27;20871;-65
2023/06/08 08:09:48;;;;;;;8.18;3.20;;;18.60;99.90;;;;;;5150387;27;20046;-65
2023/06/08 08:12:13;;;;;;;6.47;3.47;;;18.80;99.90;;;;;;5147191;27;20039;-65
2023/06/08 08:14:40;;;;;;;6.60;3.25;;;18.90;99.90;;;;;;5155659;27;20038;-64
2023/06/08 08:17:06;;;;;;;5.35;3.38;;;19.00;99.90;;;;;;5154976;27;20050;-64
2023/06/08 08:19:32;;;;;;;6.57;3.13;;;19.00;99.90;;;;;;5137290;27;20432;-64
2023/06/08 08:21:57;;;;;;;6.85;2.88;;;18.90;99.90;;;;;;5154953;27;20046;-64
2023/06/08 08:24:23;;;;;;;5.75;2.80;;;19.00;99.90;;;;;;5155206;27;20074;-64
2023/06/08 08:26:54;;;;;;;8.18;3.38;;;19.10;99.90;;;;;;5154015;27;20042;-64
2023/06/08 08:29:20;;;;;;;5.47;2.97;;;19.30;99.90;;;;;;5155250;27;20093;-65
2023/06/08 08:31:46;;;;;;;5.93;3.00;;;19.30;99.90;;;;;;5144034;27;20062;-65
2023/06/08 08:34:11;;;;;;;8.52;2.90;;;19.40;99.90;;;;;;5134284;27;20062;-63
2023/06/08 08:36:38;;;;;;;6.65;3.28;;;19.40;99.90;;;;;;5134670;27;20050;-66
2023/06/08 08:39:04;;;;;;;5.00;3.00;;;19.60;99.90;;;;;;5150576;27;20125;-66
2023/06/08 08:41:32;;;;;;;7.85;2.85;;;19.70;99.90;;;;;;5154891;27;20117;-65
2023/06/08 08:44:03;;;;;;;6.93;2.75;;;19.80;99.90;;;;;;5149343;27;20046;-65
2023/06/08 08:46:34;;;;;;;4.47;2.80;;;20.00;99.90;;;;;;5134196;27;20450;-68
2023/06/08 08:49:05;;;;;;;4.93;2.90;;;20.10;99.90;;;;;;5134343;27;20086;-66
2023/06/08 08:51:32;;;;;;;5.60;2.70;;;20.00;99.90;;;;;;5134490;27;20067;-66
2023/06/08 08:54:00;;;;;;;5.70;2.83;;;20.00;99.90;;;;;;5133446;27;20091;-65
2023/06/08 08:56:28;;;;;;;5.40;2.30;;;20.20;99.90;;;;;;5134085;27;20114;-67
2023/06/08 08:58:54;;;;;;;6.53;3.35;;;20.20;99.90;;;;;;5134012;27;20051;-65
2023/06/08 09:01:22;;;;;;;6.13;3.33;;;20.30;99.90;;;;;;5133603;27;20064;-65
2023/06/08 09:03:48;;;;;;;6.50;2.75;;;20.40;99.90;;;;;;5133868;27;20088;-65
2023/06/08 09:06:14;;;;;;;4.47;2.53;;;20.40;99.90;;;;;;5133853;27;20057;-65
2023/06/08 09:08:40;;;;;;;5.75;2.78;;;20.50;99.90;;;;;;5153862;27;20123;-65
2023/06/08 09:11:09;;;;;;;5.38;2.42;;;20.50;99.90;;;;;;5154054;27;20494;-65
2023/06/08 09:13:36;;;;;;;7.22;2.63;;;20.50;99.90;;;;;;5135783;27;20487;-65
2023/06/08 09:16:22;;;;;;;5.63;2.53;;;20.50;99.90;;;;;;5154398;27;20143;-65
2023/06/08 09:19:05;;;;;;;6.93;3.00;;;20.30;99.90;;;;;;5154499;27;20107;-65
2023/06/08 09:21:32;;;;;;;5.63;2.72;;;20.00;99.90;;;;;;5154154;27;20046;-65
2023/06/08 09:24:11;;;;;;;7.28;2.85;;;20.00;99.90;;;;;;5154063;27;20049;-64
2023/06/08 09:26:49;;;;;;;8.18;2.85;;;20.00;99.90;;;;;;5154303;27;20051;-65
2023/06/08 09:29:40;;;;;;;7.10;3.15;;;20.10;99.90;;;;;;5154392;27;20087;-65
2023/06/08 09:32:12;;;;;;;5.93;3.10;;;20.10;99.90;;;;;;5139712;27;20508;-65
2023/06/08 09:34:56;;;;;;;5.60;2.65;;;20.30;99.90;;;;;;5133272;28;20070;-65
2023/06/08 09:37:33;;;;;;;5.07;2.70;;;20.70;99.90;;;;;;5117439;27;20046;-65
2023/06/08 09:40:07;;;;;;;6.95;3.03;;;21.00;99.90;;;;;;5147591;27;20099;-65
2023/06/08 09:42:50;;;;;;;6.13;2.45;;;21.40;99.90;;;;;;5119414;27;20047;-65
2023/06/08 09:45:18;;;;;;;4.93;2.80;;;21.80;99.90;;;;;;5154944;27;20057;-65
2023/06/08 09:47:44;;;;;;;5.43;2.50;;;22.00;99.90;;;;;;5157907;27;20399;-65
2023/06/08 09:50:11;;;;;;;5.13;2.45;;;22.10;99.90;;;;;;5158288;27;20050;-65
2023/06/08 09:52:38;;;;;;;5.68;3.08;;;22.10;99.90;;;;;;5151851;27;20046;-64
2023/06/08 09:55:05;;;;;;;8.13;2.88;;;22.20;99.90;;;;;;5156933;27;20434;-65
2023/06/08 09:57:37;;;;;;;7.55;2.85;;;22.30;99.90;;;;;;5149607;27;20066;-64
2023/06/08 10:00:14;;;;;;;5.13;2.22;;;22.40;99.90;;;;;;5143774;27;20058;-65
2023/06/08 10:03:03;;;;;;;6.22;2.45;;;22.60;99.90;;;;;;5152459;27;20051;-65
2023/06/08 10:05:33;;;;;;;6.57;2.60;;;22.70;99.90;;;;;;5157627;27;20510;-65
2023/06/08 10:08:00;;;;;;;4.13;2.45;;;22.80;99.90;;;;;;5145128;27;20043;-65
2023/06/08 10:10:31;;;;;;;5.32;2.75;;;23.00;99.90;;;;;;5136445;27;20103;-65
2023/06/08 10:12:57;;;;;;;6.07;2.95;;;23.30;99.90;;;;;;5137102;27;20376;-65
2023/06/08 10:15:23;;;;;;;6.43;3.10;;;23.50;99.90;;;;;;5137141;27;20047;-65
2023/06/08 10:17:51;;;;;;;3.95;2.75;;;23.70;99.90;;;;;;5136124;27;20133;-65
2023/06/08 10:20:17;;;;;;;5.85;2.80;;;23.80;99.90;;;;;;5136721;27;20039;-65
2023/06/08 10:22:44;;;;;;;4.75;2.67;;;24.00;99.90;;;;;;5136143;27;20051;-65
2023/06/08 10:25:13;;;;;;;6.82;2.75;;;24.10;99.90;;;;;;5136858;27;20138;-64
2023/06/08 10:27:50;;;;;;;4.63;2.83;;;24.20;99.90;;;;;;5136761;27;20403;-64
2023/06/08 10:30:31;;;;;;;5.10;2.90;;;24.10;99.90;;;;;;5118248;27;20566;-63
2023/06/08 10:33:10;;;;;;;6.13;3.00;;;24.20;99.90;;;;;;5136367;27;20055;-64
2023/06/08 10:35:40;;;;;;;5.68;2.88;;;24.10;99.90;;;;;;5136721;27;20475;-64
2023/06/08 10:38:12;;;;;;;5.78;2.38;;;24.20;99.90;;;;;;5139331;27;20046;-63
2023/06/08 10:40:56;;;;;;;4.40;2.60;;;24.50;99.90;;;;;;5135867;27;20094;-63
2023/06/08 10:43:28;;;;;;;6.18;2.90;;;24.50;99.90;;;;;;5136343;27;20043;-63
2023/06/08 10:45:55;;;;;;;5.05;2.72;;;24.60;99.90;;;;;;5156789;27;20097;-64
2023/06/08 10:48:21;;;;;;;5.40;2.70;;;24.70;99.90;;;;;;5143943;27;20047;-64
2023/06/08 10:50:50;;;;;;;5.35;2.53;;;24.70;99.90;;;;;;5143866;27;20072;-63
2023/06/08 10:53:22;;;;;;;3.92;2.40;;;24.60;99.90;;;;;;5154167;27;20109;-64
2023/06/08 10:55:49;;;;;;;4.68;2.33;;;24.70;99.90;;;;;;5149338;27;20042;-66
2023/06/08 10:58:16;;;;;;;4.82;2.83;;;24.90;99.90;;;;;;5144843;27;20073;-66
2023/06/08 11:00:43;;;;;;;5.75;3.05;;;25.10;99.90;;;;;;5151822;27;20046;-65
2023/06/08 11:03:14;;;;;;;5.10;2.60;;;25.20;99.90;;;;;;5141613;27;20083;-66
2023/06/08 11:05:43;;;;;;;5.32;2.60;;;25.20;99.90;;;;;;5148718;27;20049;-65
2023/06/08 11:08:10;;;;;;;4.72;2.58;;;25.20;99.90;;;;;;5148439;27;20054;-65
2023/06/08 11:10:39;;;;;;;5.95;2.72;;;25.60;99.90;;;;;;5155973;27;20046;-65
2023/06/08 11:13:06;;;;;;;4.90;2.70;;;25.80;99.90;;;;;;5146350;27;20487;-65
2023/06/08 11:15:35;;;;;;;5.43;2.33;;;26.00;99.90;;;;;;5133312;27;20051;-62
2023/06/08 11:18:02;;;;;;;4.97;2.60;;;26.10;99.90;;;;;;5143364;27;20047;-63
2023/06/08 11:20:28;;;;;;;6.00;2.38;;;26.20;99.90;;;;;;5156505;27;20053;-62
2023/06/08 11:22:55;;;;;;;4.30;2.95;;;26.30;99.90;;;;;;5145250;27;20034;-63
2023/06/08 11:25:22;;;;;;;5.25;2.75;;;26.40;99.90;;;;;;5144564;27;20045;-62
2023/06/08 11:27:52;;;;;;;4.97;2.20;;;26.60;99.90;;;;;;5135861;27;20391;-63
2023/06/08 11:30:20;;;;;;;5.38;2.70;;;26.70;99.90;;;;;;5135960;27;20047;-63
2023/06/08 11:32:52;;;;;;;4.18;2.50;;;26.80;99.90;;;;;;5148977;27;20063;-63
2023/06/08 11:35:19;;;;;;;4.25;2.60;;;26.80;99.90;;;;;;5135500;27;20097;-63
2023/06/08 11:37:45;;;;;;;5.50;2.60;;;27.00;99.90;;;;;;5140696;27;20049;-63
2023/06/08 11:40:12;;;;;;;4.97;2.70;;;27.20;99.90;;;;;;5155801;27;20045;-63
2023/06/08 11:42:42;;;;;;;5.70;2.70;;;27.30;99.90;;;;;;5155597;27;20042;-63
2023/06/08 11:45:13;;;;;;;5.22;2.60;;;27.20;99.90;;;;;;5155852;27;20475;-63
2023/06/08 11:47:43;;;;;;;6.05;2.72;;;27.20;99.90;;;;;;5137542;27;20110;-63
2023/06/08 11:50:13;;;;;;;6.60;2.60;;;27.00;99.90;;;;;;5155983;27;20047;-63
2023/06/08 11:52:41;;;;;;;5.22;2.63;;;27.10;99.90;;;;;;5155909;27;20062;-63
2023/06/08 11:55:12;;;;;;;4.35;2.40;;;27.20;99.90;;;;;;5155908;27;20039;-63
2023/06/08 11:57:47;;;;;;;5.00;2.50;;;27.30;99.90;;;;;;5156093;27;20572;-63
2023/06/08 12:00:18;;;;;;;5.18;2.80;;;27.30;99.90;;;;;;5137251;27;20051;-63
2023/06/08 12:02:47;;;;;;;6.47;2.50;;;27.30;99.90;;;;;;5134052;27;20071;-63
2023/06/08 12:05:24;;;;;;;4.38;2.53;;;27.30;99.90;;;;;;5134981;27;20047;-63
2023/06/08 12:08:04;;;;;;;5.05;2.60;;;27.40;99.90;;;;;;5143537;27;20050;-63
2023/06/08 12:10:34;;;;;;;4.63;2.55;;;27.60;99.90;;;;;;5134084;27;20562;-63
2023/06/08 12:13:08;;;;;;;5.43;2.53;;;27.70;99.90;;;;;;5131722;27;20051;-63
2023/06/08 12:15:41;;;;;;;4.78;2.50;;;27.80;99.90;;;;;;5134404;27;20484;-63
2023/06/08 12:18:09;;;;;;;5.03;2.80;;;27.80;99.90;;;;;;5134523;27;20039;-63
2023/06/08 12:20:35;;;;;;;5.68;3.05;;;27.80;99.90;;;;;;5134287;27;20096;-63
2023/06/08 12:23:01;;;;;;;5.88;2.67;;;28.00;99.90;;;;;;5134872;27;20483;-63
2023/06/08 12:25:28;;;;;;;5.53;2.83;;;28.10;99.90;;;;;;5116308;27;20085;-63
2023/06/08 12:27:54;;;;;;;5.50;2.78;;;28.20;99.90;;;;;;5134307;27;20047;-63
2023/06/08 12:30:21;;;;;;;5.07;2.88;;;28.20;99.90;;;;;;5116256;27;20082;-64
2023/06/08 12:32:47;;;;;;;3.85;2.50;;;28.10;99.90;;;;;;5151313;27;20047;-62
2023/06/08 12:35:13;;;;;;;4.55;2.78;;;28.20;99.90;;;;;;5134336;27;20065;-62
2023/06/08 12:37:38;;;;;;;6.28;2.83;;;28.20;99.90;;;;;;5139733;27;20398;-64
2023/06/08 12:40:06;;;;;;;5.05;2.58;;;28.20;99.90;;;;;;5120890;27;20038;-63
2023/06/08 12:42:32;;;;;;;5.43;2.63;;;28.10;99.90;;;;;;5134181;27;20053;-63
2023/06/08 12:44:58;;;;;;;5.70;2.88;;;28.20;99.90;;;;;;5133871;27;20051;-64
2023/06/08 12:47:24;;;;;;;5.63;2.65;;;28.50;99.90;;;;;;5134396;27;20096;-63
2023/06/08 12:49:51;;;;;;;5.65;3.10;;;28.70;99.90;;;;;;5134304;27;20112;-63